Time;durP1;ratioP1;P1;durP2;ratioP2;P2;SDS_P1;SDS_P2;PMS_P1;PMS_P2;Temp;Humidity;BMP_temperature;BMP_pressure;BME280_temperature;BME280_humidity;BME280_pressure;Samples;Min_cycle;Max_cycle;Signal;HPM_P1;HPM_P2
2024/04/12 00:02:07;;;;;;;18.15;12.95;;;;;;;15.15;96.14;102246.81;5645388;26;20661;-71
2024/04/12 00:04:37;;;;;;;18.02;13.55;;;;;;;15.06;96.26;102246.22;5651100;26;19998;-72
2024/04/12 00:07:13;;;;;;;16.45;12.38;;;;;;;15.10;96.23;102243.47;5624715;26;20055;-73
2024/04/12 00:09:44;;;;;;;16.85;12.93;;;;;;;15.12;96.10;102249.56;5624677;26;20006;-71
2024/04/12 00:12:15;;;;;;;17.85;12.82;;;;;;;15.14;96.11;102244.22;5654056;26;20003;-73
2024/04/12 00:14:45;;;;;;;17.00;12.65;;;;;;;15.17;95.85;102241.53;5657519;26;20338;-72
2024/04/12 00:17:15;;;;;;;17.80;13.75;;;;;;;15.08;96.04;102233.88;5650535;26;20013;-73
2024/04/12 00:19:46;;;;;;;17.52;13.75;;;;;;;15.06;96.47;102235.69;5653088;26;20009;-71
2024/04/12 00:22:17;;;;;;;19.63;14.25;;;;;;;15.01;96.83;102233.16;5622167;26;19994;-73
2024/04/12 00:24:47;;;;;;;19.40;14.18;;;;;;;15.01;97.04;102241.06;5651841;26;20461;-70
2024/04/12 00:27:18;;;;;;;18.65;13.77;;;;;;;14.96;97.67;102229.81;5657109;26;20343;-73
2024/04/12 00:29:48;;;;;;;19.05;14.18;;;;;;;15.00;97.51;102226.16;5657951;26;20022;-72
2024/04/12 00:32:19;;;;;;;20.70;14.35;;;;;;;15.03;96.70;102233.97;5655662;26;20009;-73
2024/04/12 00:34:51;;;;;;;21.63;13.98;;;;;;;15.02;97.45;102228.78;5654934;26;19993;-73
2024/04/12 00:37:22;;;;;;;18.15;14.23;;;;;;;15.01;97.69;102227.91;5652275;26;20056;-73
2024/04/12 00:39:54;;;;;;;20.63;15.05;;;;;;;15.04;96.70;102225.19;5651343;26;19998;-73
2024/04/12 00:42:31;;;;;;;20.15;14.35;;;;;;;15.02;96.81;102228.78;5654849;26;20002;-73
2024/04/12 00:45:11;;;;;;;18.77;13.93;;;;;;;15.02;97.00;102221.72;5649051;26;20006;-72
2024/04/12 00:47:42;;;;;;;18.45;13.73;;;;;;;15.00;97.20;102220.06;5643634;26;20338;-71
2024/04/12 00:50:15;;;;;;;20.90;14.18;;;;;;;14.99;97.68;102224.44;5649181;26;20013;-73
2024/04/12 00:52:46;;;;;;;18.45;13.82;;;;;;;15.02;97.98;102227.00;5618672;26;20294;-73
2024/04/12 00:55:17;;;;;;;19.25;14.18;;;;;;;15.14;96.85;102221.41;5651747;26;20009;-73
2024/04/12 00:57:47;;;;;;;18.52;13.75;;;;;;;15.05;97.02;102220.78;5657238;26;20013;-73
2024/04/12 01:00:19;;;;;;;22.25;13.98;;;;;;;14.99;97.24;102220.97;5659011;26;20576;-72
2024/04/12 01:02:51;;;;;;;20.30;13.73;;;;;;;15.01;98.24;102219.16;5656140;26;20364;-73
2024/04/12 01:05:22;;;;;;;18.63;14.15;;;;;;;15.02;97.94;102227.00;5658291;26;20009;-73
2024/04/12 01:07:55;;;;;;;20.38;13.70;;;;;;;14.99;97.88;102223.59;5657088;26;20002;-71
2024/04/12 01:10:26;;;;;;;20.60;14.30;;;;;;;15.03;97.54;102215.53;5656022;26;20030;-73
2024/04/12 01:12:58;;;;;;;19.60;14.85;;;;;;;15.03;97.93;102220.81;5659275;26;20006;-71
2024/04/12 01:15:36;;;;;;;19.95;14.80;;;;;;;15.07;97.77;102214.59;5622262;26;20473;-72
2024/04/12 01:18:16;;;;;;;23.65;15.38;;;;;;;15.04;97.52;102217.28;5659245;26;20014;-73
2024/04/12 01:20:46;;;;;;;20.73;14.20;;;;;;;15.13;97.47;102216.16;5657210;26;20002;-73
2024/04/12 01:23:17;;;;;;;22.23;14.63;;;;;;;15.18;97.01;102215.13;5656451;26;20074;-73
2024/04/12 01:25:47;;;;;;;19.27;14.43;;;;;;;15.21;96.79;102219.44;5658999;26;20005;-72
2024/04/12 01:28:19;;;;;;;22.17;15.27;;;;;;;15.14;96.53;102213.50;5660795;26;19998;-72
2024/04/12 01:30:49;;;;;;;19.42;14.85;;;;;;;15.20;96.80;102217.72;5655758;26;20024;-73
2024/04/12 01:33:20;;;;;;;20.60;14.68;;;;;;;15.15;96.92;102220.50;5660132;26;19994;-73
2024/04/12 01:35:52;;;;;;;22.52;15.05;;;;;;;15.29;96.85;102213.09;5658356;26;20082;-73
2024/04/12 01:38:23;;;;;;;24.80;15.63;;;;;;;15.24;96.42;102209.69;5659589;26;20119;-73
2024/04/12 01:40:57;;;;;;;21.77;15.65;;;;;;;15.30;95.74;102213.94;5660428;26;20009;-73
2024/04/12 01:43:27;;;;;;;20.10;15.00;;;;;;;15.22;96.17;102206.22;5656726;26;20002;-73
2024/04/12 01:45:58;;;;;;;20.88;14.65;;;;;;;15.19;96.44;102219.47;5658978;26;20545;-73
2024/04/12 01:48:28;;;;;;;20.40;14.23;;;;;;;15.19;96.96;102206.31;5656286;26;20135;-73
2024/04/12 01:51:02;;;;;;;20.95;14.18;;;;;;;15.21;96.82;102207.13;5658634;26;19998;-73
2024/04/12 01:53:37;;;;;;;22.25;15.10;;;;;;;15.41;95.59;102207.47;5660561;26;20320;-73
2024/04/12 01:56:09;;;;;;;21.20;14.40;;;;;;;15.47;95.01;102196.75;5657313;26;19998;-73
2024/04/12 01:58:40;;;;;;;21.77;14.95;;;;;;;15.42;95.95;102192.50;5656219;26;20017;-72
2024/04/12 02:01:11;;;;;;;23.50;14.80;;;;;;;15.25;97.32;102211.44;5659868;26;20013;-73
2024/04/12 02:03:42;;;;;;;25.25;14.20;;;;;;;15.21;97.42;102212.41;5623520;26;20198;-73
2024/04/12 02:06:15;;;;;;;21.88;14.63;;;;;;;15.31;96.57;102205.13;5655209;26;19994;-72
2024/04/12 02:08:48;;;;;;;19.10;13.82;;;;;;;15.32;96.30;102205.09;5658351;26;20013;-72
2024/04/12 02:11:23;;;;;;;22.42;14.80;;;;;;;15.27;96.99;102196.44;5654499;26;19990;-73
2024/04/12 02:13:53;;;;;;;22.35;14.30;;;;;;;15.27;96.91;102182.38;5660080;26;20078;-73
2024/04/12 02:16:24;;;;;;;22.48;14.60;;;;;;;15.22;97.58;102195.69;5658080;26;20449;-72
2024/04/12 02:18:54;;;;;;;22.63;14.10;;;;;;;15.30;97.05;102201.66;5660535;26;20704;-73
2024/04/12 02:21:31;;;;;;;20.65;14.70;;;;;;;15.20;97.01;102197.50;5660880;26;20451;-72
2024/04/12 02:24:02;;;;;;;21.00;14.45;;;;;;;15.15;98.40;102194.16;5655590;26;20445;-71
2024/04/12 02:26:32;;;;;;;22.17;14.25;;;;;;;15.20;98.26;102192.22;5652732;26;19998;-72
2024/04/12 02:29:04;;;;;;;22.95;14.18;;;;;;;15.13;99.11;102185.44;5659333;26;19995;-71
2024/04/12 02:31:37;;;;;;;18.45;13.60;;;;;;;15.26;98.27;102197.34;5658309;26;20026;-73
2024/04/12 02:34:09;;;;;;;18.58;14.05;;;;;;;15.06;98.15;102201.44;5622817;26;20050;-73
2024/04/12 02:36:39;;;;;;;18.40;13.57;;;;;;;15.20;97.36;102194.88;5660707;26;20346;-73
2024/04/12 02:39:09;;;;;;;19.92;13.45;;;;;;;15.16;97.51;102197.66;5623389;26;20476;-72
2024/04/12 02:41:41;;;;;;;20.75;13.55;;;;;;;15.11;98.09;102205.69;5653957;26;20105;-73
2024/04/12 02:44:12;;;;;;;18.77;12.90;;;;;;;15.05;98.93;102208.47;5623660;26;20454;-72
2024/04/12 02:46:43;;;;;;;19.77;13.23;;;;;;;15.07;99.32;102200.53;5656030;26;20009;-70
2024/04/12 02:49:14;;;;;;;18.88;13.40;;;;;;;15.01;99.14;102206.84;5648646;26;20530;-73
2024/04/12 02:51:47;;;;;;;18.65;13.73;;;;;;;15.07;98.56;102201.41;5659941;26;19998;-73
2024/04/12 02:54:19;;;;;;;17.70;12.82;;;;;;;15.11;98.76;102196.91;5659060;26;20491;-72
2024/04/12 02:56:50;;;;;;;21.63;13.25;;;;;;;15.08;98.22;102192.59;5653188;26;19994;-73
2024/04/12 02:59:21;;;;;;;19.90;13.43;;;;;;;15.08;98.13;102197.00;5658624;26;20020;-72
2024/04/12 03:01:51;;;;;;;19.13;12.93;;;;;;;15.07;98.41;102190.88;5658415;26;20002;-73
2024/04/12 03:04:22;;;;;;;20.33;14.07;;;;;;;15.01;98.63;102184.91;5628771;26;20472;-72
2024/04/12 03:06:52;;;;;;;18.27;13.00;;;;;;;15.08;98.61;102184.69;5660098;26;20543;-73
2024/04/12 03:09:27;;;;;;;20.63;13.75;;;;;;;15.14;98.38;102191.53;5624665;26;19990;-72
2024/04/12 03:12:00;;;;;;;20.73;13.82;;;;;;;15.03;99.09;102183.94;5658420;26;20226;-73
2024/04/12 03:14:30;;;;;;;18.83;12.90;;;;;;;15.02;99.91;102182.22;5658487;26;20626;-71
2024/04/12 03:17:04;;;;;;;20.40;13.55;;;;;;;15.11;99.34;102176.72;5658770;26;20445;-72
2024/04/12 03:19:34;;;;;;;21.58;14.50;;;;;;;14.91;100.00;102172.91;5653971;26;20071;-73
2024/04/12 03:22:04;;;;;;;20.30;13.82;;;;;;;15.00;100.00;102157.72;5657419;26;20034;-72
2024/04/12 03:24:35;;;;;;;19.65;13.50;;;;;;;14.97;99.96;102160.44;5659588;26;20025;-73
2024/04/12 03:27:06;;;;;;;23.98;14.02;;;;;;;14.88;100.00;102162.47;5624062;26;20451;-72
2024/04/12 03:29:36;;;;;;;22.60;14.00;;;;;;;14.85;100.00;102170.44;5661927;26;20009;-73
2024/04/12 03:32:07;;;;;;;20.23;13.00;;;;;;;14.94;100.00;102165.78;5627157;26;20312;-73
2024/04/12 03:34:37;;;;;;;21.83;13.73;;;;;;;15.00;100.00;102157.72;5659123;26;20002;-73
2024/04/12 03:37:23;;;;;;;21.42;14.07;;;;;;;14.90;100.00;102164.16;5617791;26;20075;-73
2024/04/12 03:40:00;;;;;;;23.55;13.77;;;;;;;14.82;100.00;102168.75;5660545;26;20071;-73
2024/04/12 03:42:30;;;;;;;20.73;14.48;;;;;;;14.91;100.00;102165.00;5658447;26;19993;-71
2024/04/12 03:45:12;;;;;;;21.33;13.73;;;;;;;14.82;100.00;102156.50;5623704;26;20074;-71
2024/04/12 03:47:50;;;;;;;19.55;13.80;;;;;;;14.77;100.00;102168.94;5658951;26;20345;-70
2024/04/12 03:50:20;;;;;;;18.08;13.18;;;;;;;14.74;100.00;102158.50;5652312;26;20085;-72
2024/04/12 03:52:51;;;;;;;19.40;13.32;;;;;;;14.70;100.00;102160.34;5661234;26;20457;-73
2024/04/12 03:55:21;;;;;;;21.75;12.85;;;;;;;14.68;100.00;102154.25;5652394;26;20013;-71
2024/04/12 03:57:51;;;;;;;20.52;13.35;;;;;;;14.68;100.00;102148.13;5657470;26;20010;-70
2024/04/12 04:00:22;;;;;;;20.67;13.95;;;;;;;14.65;100.00;102148.19;5655214;26;20016;-73
2024/04/12 04:02:53;;;;;;;19.88;13.27;;;;;;;14.68;100.00;102153.38;5658308;26;19995;-73
2024/04/12 04:05:25;;;;;;;19.50;13.43;;;;;;;14.79;100.00;102151.31;5624431;26;20002;-72
2024/04/12 04:07:55;;;;;;;19.25;13.27;;;;;;;14.78;100.00;102154.88;5659425;26;20463;-73
2024/04/12 04:10:26;;;;;;;19.70;12.48;;;;;;;15.01;100.00;102148.91;5625026;26;19990;-73
2024/04/12 04:12:56;;;;;;;17.40;13.13;;;;;;;14.99;100.00;102148.06;5659620;26;20684;-73
2024/04/12 04:15:26;;;;;;;19.58;12.85;;;;;;;14.83;100.00;102152.06;5657614;26;20453;-73
2024/04/12 04:17:57;;;;;;;17.38;12.35;;;;;;;14.66;100.00;102155.19;5658058;26;19998;-73
2024/04/12 04:20:27;;;;;;;20.48;13.50;;;;;;;14.81;100.00;102149.50;5655347;26;20465;-73
2024/04/12 04:23:02;;;;;;;17.77;12.80;;;;;;;14.82;100.00;102151.22;5657694;26;20014;-73
2024/04/12 04:25:32;;;;;;;18.95;13.23;;;;;;;14.64;100.00;102142.09;5659368;26;19997;-73
2024/04/12 04:28:03;;;;;;;18.98;13.15;;;;;;;14.74;100.00;102137.44;5658402;26;20381;-73
2024/04/12 04:30:35;;;;;;;19.33;13.00;;;;;;;14.62;100.00;102137.75;5655434;26;20013;-72
2024/04/12 04:33:05;;;;;;;19.20;13.13;;;;;;;14.58;100.00;102138.75;5658200;26;20005;-73
2024/04/12 04:35:35;;;;;;;19.17;13.23;;;;;;;14.65;100.00;102135.03;5657052;26;19990;-73
2024/04/12 04:38:09;;;;;;;21.40;13.43;;;;;;;14.64;100.00;102133.31;5657674;26;19998;-72
2024/04/12 04:40:40;;;;;;;19.60;13.18;;;;;;;14.74;100.00;102138.28;5655164;26;20167;-73
2024/04/12 04:43:12;;;;;;;19.92;12.77;;;;;;;14.81;100.00;102138.97;5658732;26;20419;-72
2024/04/12 04:45:48;;;;;;;17.80;12.25;;;;;;;14.75;100.00;102131.25;5656921;26;19998;-71
2024/04/12 04:48:18;;;;;;;17.02;11.65;;;;;;;14.87;100.00;102137.03;5622905;26;20365;-72
2024/04/12 04:50:48;;;;;;;16.73;11.63;;;;;;;14.86;100.00;102135.31;5624135;26;20744;-72
2024/04/12 04:53:18;;;;;;;18.63;12.07;;;;;;;14.88;100.00;102133.50;5623668;26;20008;-73
2024/04/12 04:55:49;;;;;;;18.23;12.15;;;;;;;14.81;100.00;102123.19;5657438;26;20093;-73
2024/04/12 04:58:19;;;;;;;17.08;12.48;;;;;;;14.83;100.00;102122.25;5657911;26;19999;-73
2024/04/12 05:00:52;;;;;;;17.92;11.90;;;;;;;14.90;100.00;102126.41;5623184;26;19998;-72
2024/04/12 05:03:22;;;;;;;19.35;12.50;;;;;;;14.77;100.00;102127.66;5657644;26;20453;-72
2024/04/12 05:05:53;;;;;;;16.30;11.63;;;;;;;14.65;100.00;102127.16;5654748;26;20063;-72
2024/04/12 05:08:23;;;;;;;17.58;11.15;;;;;;;14.70;100.00;102136.66;5658397;26;20083;-72
2024/04/12 05:10:55;;;;;;;16.73;11.05;;;;;;;14.82;100.00;102142.44;5654536;26;20008;-71
2024/04/12 05:13:28;;;;;;;17.45;11.20;;;;;;;14.97;100.00;102139.38;5657320;26;20389;-73
2024/04/12 05:15:59;;;;;;;18.42;11.00;;;;;;;14.91;100.00;102149.19;5658476;26;20009;-72
2024/04/12 05:18:29;;;;;;;15.35;10.25;;;;;;;14.94;100.00;102149.13;5654118;26;20002;-73
2024/04/12 05:20:59;;;;;;;15.23;10.25;;;;;;;14.94;99.90;102144.72;5655628;26;20634;-70
2024/04/12 05:23:30;;;;;;;14.30;9.65;;;;;;;14.98;99.00;102148.16;5654203;26;20031;-73
2024/04/12 05:26:01;;;;;;;15.43;9.88;;;;;;;15.05;99.31;102150.53;5650006;26;19999;-70
2024/04/12 05:28:31;;;;;;;16.35;10.05;;;;;;;15.07;99.21;102156.63;5653027;26;19998;-73
2024/04/12 05:31:02;;;;;;;16.88;9.55;;;;;;;15.12;98.20;102144.19;5654019;26;20045;-72
2024/04/12 05:33:33;;;;;;;14.23;9.65;;;;;;;15.13;97.96;102153.81;5621085;26;20023;-71
2024/04/12 05:36:09;;;;;;;17.10;9.07;;;;;;;15.16;98.40;102159.00;5654926;26;20061;-72
2024/04/12 05:38:40;;;;;;;16.17;9.45;;;;;;;15.21;97.44;102157.06;5658612;26;20009;-73
2024/04/12 05:41:13;;;;;;;17.63;9.35;;;;;;;15.23;96.49;102154.41;5659076;26;19998;-73
2024/04/12 05:43:43;;;;;;;16.67;9.18;;;;;;;15.34;95.66;102150.56;5648393;26;20002;-72
2024/04/12 05:46:13;;;;;;;15.98;9.70;;;;;;;15.32;95.32;102149.78;5660598;26;19994;-73
2024/04/12 05:48:44;;;;;;;16.20;9.75;;;;;;;15.34;95.16;102152.38;5661015;26;20002;-72
2024/04/12 05:51:14;;;;;;;17.85;9.80;;;;;;;15.42;94.12;102152.97;5658059;26;20477;-73
2024/04/12 05:53:51;;;;;;;17.50;9.88;;;;;;;15.40;94.50;102158.28;5659297;26;20462;-72
2024/04/12 05:56:21;;;;;;;15.50;9.40;;;;;;;15.44;94.78;102165.22;5663875;26;20038;-72
2024/04/12 05:58:51;;;;;;;16.52;9.85;;;;;;;15.48;95.46;102158.94;5668463;26;20518;-72
2024/04/12 06:01:24;;;;;;;15.70;9.18;;;;;;;15.64;93.36;102157.56;5666148;26;19994;-73
2024/04/12 06:03:56;;;;;;;14.73;8.95;;;;;;;15.61;93.87;102152.38;5660983;26;19998;-71
2024/04/12 06:06:31;;;;;;;16.58;8.98;;;;;;;15.51;94.36;102142.19;5628429;26;20005;-71
2024/04/12 06:09:05;;;;;;;15.68;9.23;;;;;;;15.56;94.40;102148.16;5657156;26;20005;-73
2024/04/12 06:11:37;;;;;;;14.07;9.07;;;;;;;15.50;94.73;102151.84;5662224;26;20006;-73
2024/04/12 06:14:09;;;;;;;16.27;8.75;;;;;;;15.51;94.76;102148.28;5661970;26;20078;-73
2024/04/12 06:16:44;;;;;;;15.57;9.10;;;;;;;15.54;94.76;102149.97;5663932;26;19998;-72
2024/04/12 06:19:14;;;;;;;15.33;9.43;;;;;;;15.60;94.72;102155.94;5660997;26;20079;-73
2024/04/12 06:21:45;;;;;;;15.85;8.82;;;;;;;15.65;93.85;102143.47;5662522;26;20010;-74
2024/04/12 06:24:25;;;;;;;16.77;8.98;;;;;;;15.71;93.37;102142.41;5661633;26;20397;-73
2024/04/12 06:26:57;;;;;;;17.27;8.95;;;;;;;15.70;93.62;102140.69;5661380;26;20009;-74
2024/04/12 06:29:28;;;;;;;13.73;8.57;;;;;;;15.66;93.55;102139.91;5628043;26;19998;-73
2024/04/12 06:31:58;;;;;;;12.70;8.02;;;;;;;15.70;92.77;102130.16;5658653;26;19998;-73
2024/04/12 06:34:37;;;;;;;14.57;7.72;;;;;;;15.76;92.92;102122.03;5662907;26;20002;-73
2024/04/12 06:37:08;;;;;;;14.48;8.02;;;;;;;15.76;93.42;102119.41;5658447;26;20429;-73
2024/04/12 06:39:40;;;;;;;14.35;7.60;;;;;;;15.76;92.73;102120.28;5660108;26;20006;-73
2024/04/12 06:42:10;;;;;;;11.60;7.50;;;;;;;15.76;93.45;102114.13;5630736;26;20399;-72
2024/04/12 06:44:48;;;;;;;13.80;6.95;;;;;;;15.92;92.01;102116.22;5657442;26;20056;-73
2024/04/12 06:47:19;;;;;;;13.88;7.13;;;;;;;15.94;92.06;102109.13;5661511;26;19998;-71
2024/04/12 06:49:52;;;;;;;12.48;7.05;;;;;;;16.04;90.89;102105.25;5624273;26;20375;-73
2024/04/12 06:52:22;;;;;;;11.80;6.70;;;;;;;16.01;91.07;102100.09;5626786;26;20005;-71
2024/04/12 06:54:52;;;;;;;12.18;6.45;;;;;;;15.95;91.32;102105.56;5660520;26;20002;-72
2024/04/12 06:57:25;;;;;;;11.75;6.22;;;;;;;16.04;91.40;102105.25;5661020;26;20399;-73
2024/04/12 06:59:58;;;;;;;13.00;6.85;;;;;;;16.16;91.28;102103.97;5658884;26;19998;-72
2024/04/12 07:02:29;;;;;;;10.25;6.63;;;;;;;16.21;91.03;102094.97;5661466;26;19990;-72
2024/04/12 07:05:00;;;;;;;16.55;7.03;;;;;;;16.26;90.90;102092.19;5658579;26;19996;-73
2024/04/12 07:07:30;;;;;;;10.07;6.07;;;;;;;16.52;90.53;102082.47;5659218;26;20013;-72
2024/04/12 07:10:09;;;;;;;11.80;6.25;;;;;;;16.50;90.79;102088.72;5618054;26;20007;-73
2024/04/12 07:12:43;;;;;;;10.48;5.75;;;;;;;16.53;90.83;102084.19;5659386;26;20079;-72
2024/04/12 07:15:21;;;;;;;8.57;5.85;;;;;;;16.70;90.58;102088.88;5628924;26;19998;-72
2024/04/12 07:17:51;;;;;;;13.93;5.78;;;;;;;16.69;89.15;102098.56;5651813;26;20025;-73
2024/04/12 07:20:27;;;;;;;11.60;5.30;;;;;;;16.72;88.82;102085.25;5660300;26;20045;-72
2024/04/12 07:22:58;;;;;;;10.52;4.85;;;;;;;16.84;87.55;102096.22;5628446;26;20009;-73
2024/04/12 07:25:28;;;;;;;9.18;4.55;;;;;;;16.95;87.56;102093.19;5660045;26;20002;-73
2024/04/12 07:28:00;;;;;;;10.43;4.53;;;;;;;17.12;87.43;102099.56;5660303;26;20553;-73
2024/04/12 07:30:30;;;;;;;11.15;5.18;;;;;;;17.00;86.64;102096.53;5659788;26;20009;-72
2024/04/12 07:33:05;;;;;;;9.65;4.60;;;;;;;17.09;86.25;102098.81;5628282;26;20002;-72
2024/04/12 07:35:35;;;;;;;9.77;3.85;;;;;;;17.02;84.55;102097.31;5656181;26;19998;-72
2024/04/12 07:38:07;;;;;;;9.75;3.95;;;;;;;17.01;85.70;102092.97;5660955;26;19994;-72
2024/04/12 07:40:40;;;;;;;11.13;3.83;;;;;;;16.89;85.10;102099.56;5659362;26;20512;-73
2024/04/12 07:43:11;;;;;;;9.35;3.67;;;;;;;17.13;83.37;102096.00;5659508;26;20006;-73
2024/04/12 07:45:42;;;;;;;9.82;3.50;;;;;;;16.98;83.23;102093.09;5659384;26;20410;-73
2024/04/12 07:50:54;;;;;;;7.88;3.50;;;;;;;17.35;83.33;102088.13;5657430;26;20053;-73
2024/04/12 07:53:24;;;;;;;10.40;3.58;;;;;;;17.37;82.29;102086.28;5661668;26;20001;-73
2024/04/12 07:56:20;;;;;;;7.82;3.40;;;;;;;17.53;81.52;102097.97;5661442;26;19990;-73
2024/04/12 08:01:53;;;;;;;8.15;3.20;;;;;;;17.66;82.47;102088.66;5476206;26;19998;-73
2024/04/12 08:04:24;;;;;;;7.53;3.25;;;;;;;18.52;81.00;102086.69;5629121;26;20009;-71
2024/04/12 08:06:55;;;;;;;6.20;3.35;;;;;;;19.88;74.35;102085.50;5651814;26;20523;-73
2024/04/12 08:09:35;;;;;;;8.25;2.90;;;;;;;21.47;69.57;102077.78;5655710;26;20083;-71
2024/04/12 08:12:14;;;;;;;6.43;2.85;;;;;;;23.76;66.06;102065.25;5657822;26;20009;-73
2024/04/12 08:14:52;;;;;;;6.10;2.95;;;;;;;22.29;66.32;102074.66;5659852;26;20476;-73
2024/04/12 08:17:24;;;;;;;6.28;2.75;;;;;;;22.45;65.93;102069.31;5661854;26;20076;-70
2024/04/12 08:20:00;;;;;;;9.48;3.15;;;;;;;22.12;65.88;102071.31;5655321;26;20016;-74
2024/04/12 08:22:33;;;;;;;9.73;3.33;;;;;;;22.50;66.24;102061.91;5663427;26;20002;-71
2024/04/12 08:25:06;;;;;;;8.13;3.00;;;;;;;23.00;64.93;102053.31;5654685;26;19994;-73
2024/04/12 08:27:41;;;;;;;5.28;2.65;;;;;;;23.38;63.32;102054.41;5652683;26;20043;-74
2024/04/12 08:30:14;;;;;;;6.80;2.80;;;;;;;24.71;61.31;102040.84;5658494;26;20005;-74
2024/04/12 08:32:48;;;;;;;7.05;2.60;;;;;;;25.01;60.11;102040.34;5654500;26;19994;-73
2024/04/12 08:35:24;;;;;;;11.38;2.60;;;;;;;23.69;61.58;102047.94;5625954;26;20326;-73
2024/04/12 08:37:54;;;;;;;6.85;2.30;;;;;;;23.05;62.94;102055.69;5663365;26;20008;-74
2024/04/12 08:40:25;;;;;;;6.60;2.53;;;;;;;24.06;62.45;102055.22;5653999;26;19994;-73
2024/04/12 08:43:09;;;;;;;4.78;2.45;;;;;;;24.99;60.01;102046.78;5659663;26;20034;-74
2024/04/12 08:45:43;;;;;;;6.63;2.72;;;;;;;24.58;60.04;102056.88;5647465;26;20008;-73
2024/04/12 08:48:15;;;;;;;6.50;2.75;;;;;;;24.06;61.81;102068.59;5652665;26;19994;-74
2024/04/12 08:50:48;;;;;;;6.15;2.47;;;;;;;24.32;61.00;102071.19;5652487;26;20399;-73
2024/04/12 08:53:26;;;;;;;5.25;2.50;;;;;;;24.07;60.96;102063.13;5647943;26;20039;-74
2024/04/12 08:56:01;;;;;;;6.07;2.60;;;;;;;23.88;62.74;102064.47;5660275;26;19998;-74
2024/04/12 08:58:31;;;;;;;4.50;2.53;;;;;;;25.66;59.32;102060.50;5658253;26;19994;-72
2024/04/12 09:01:01;;;;;;;8.18;2.60;;;;;;;24.81;59.62;102061.50;5654468;26;20412;-73
2024/04/12 09:03:40;;;;;;;7.15;2.38;;;;;;;26.12;58.46;102065.94;5647328;26;19998;-73
2024/04/12 09:06:15;;;;;;;5.90;2.45;;;;;;;27.09;55.84;102056.34;5652610;26;19994;-74
2024/04/12 09:08:47;;;;;;;6.72;2.38;;;;;;;25.02;58.66;102060.81;5652846;26;19994;-74
2024/04/12 09:11:19;;;;;;;6.90;2.55;;;;;;;24.69;58.90;102057.00;5648583;26;20006;-74
2024/04/12 09:13:51;;;;;;;9.05;2.30;;;;;;;24.79;60.68;102066.09;5652199;26;20287;-74
2024/04/12 09:16:23;;;;;;;6.95;2.30;;;;;;;24.18;61.79;102065.09;5653954;26;20021;-73
2024/04/12 09:18:54;;;;;;;4.75;2.22;;;;;;;23.30;63.44;102077.22;5659871;26;20002;-74
2024/04/12 09:21:24;;;;;;;6.10;2.33;;;;;;;22.85;65.23;102080.13;5656216;26;20119;-73
2024/04/12 09:23:58;;;;;;;5.07;2.10;;;;;;;23.51;63.20;102059.84;5654220;26;20257;-73
2024/04/12 09:26:39;;;;;;;6.25;2.25;;;;;;;23.33;64.68;102064.53;5661479;26;20390;-73
2024/04/12 09:29:10;;;;;;;6.13;2.80;;;;;;;22.33;65.61;102083.34;5629720;26;20009;-73
2024/04/12 09:34:35;;;;;;;6.40;2.35;;;;;;;20.89;68.53;102078.44;5661844;26;19997;-74
2024/04/12 09:37:29;;;;;;;4.45;2.30;;;;;;;21.23;69.64;102080.94;5624972;26;20003;-74
2024/04/12 09:45:27;;;;;;;7.05;2.90;;;;;;;21.40;69.80;102048.94;5664348;26;21436;-73
2024/04/12 10:39:33;;;;;;;9.77;3.78;;;;;;;21.39;68.96;102031.25;5657427;26;20229;-73
2024/04/12 10:42:05;;;;;;;6.38;3.47;;;;;;;21.28;70.11;102050.50;5654901;26;20330;-72
2024/04/12 10:44:35;;;;;;;5.50;3.47;;;;;;;21.05;70.89;102042.09;5654893;26;19994;-74
2024/04/12 10:47:12;;;;;;;7.07;3.33;;;;;;;21.23;70.41;102038.41;5648899;26;20065;-73
2024/04/12 10:49:43;;;;;;;6.13;3.17;;;;;;;21.29;69.87;102043.34;5659414;26;19999;-71
2024/04/12 10:52:16;;;;;;;5.03;2.80;;;;;;;21.03;70.71;102042.16;5654057;26;20006;-73
2024/04/12 10:54:47;;;;;;;5.45;3.20;;;;;;;21.20;69.19;102046.56;5656833;26;20006;-71
2024/04/12 10:57:19;;;;;;;8.02;3.15;;;;;;;20.65;70.54;102042.47;5628299;26;19995;-72
2024/04/12 10:59:51;;;;;;;5.38;2.78;;;;;;;20.87;70.96;102045.75;5655557;26;20045;-72
2024/04/12 11:02:22;;;;;;;6.30;2.97;;;;;;;20.85;70.53;102048.47;5653384;26;20075;-73
2024/04/12 11:05:38;;;;;;;4.10;2.35;;;;;;;20.85;71.05;102047.59;5660440;26;20002;-71
2024/04/12 11:07:53;;;;;;;6.03;2.83;;;;;;;20.72;70.62;102041.22;5645262;26;20017;-73
2024/04/12 11:10:24;;;;;;;6.63;2.92;;;;;;;20.74;71.04;102036.69;5655537;26;20018;-73
2024/04/12 11:13:01;;;;;;;6.15;2.80;;;;;;;20.81;72.14;102030.09;5650704;26;20352;-74
2024/04/12 11:32:26;;;;;;;6.45;2.97;;;;;;;21.75;69.58;101990.06;5645181;26;20003;-74
2024/04/12 11:34:56;;;;;;;5.63;3.05;;;;;;;21.94;70.73;102005.84;5617515;26;19999;-74
2024/04/12 11:37:28;;;;;;;5.13;3.28;;;;;;;21.64;69.29;102011.16;5651874;26;20361;-73
2024/04/12 11:40:03;;;;;;;5.90;3.47;;;;;;;21.69;70.13;102008.22;5641779;26;20417;-74
2024/04/12 11:42:39;;;;;;;5.05;3.38;;;;;;;21.74;70.90;102007.00;5636538;26;20469;-72
2024/04/12 11:45:14;;;;;;;;;;;;;;;21.64;70.35;102002.31;5638597;26;19999;-75
2024/04/12 11:47:44;;;;;;;8.57;4.15;;;;;;;21.58;69.15;101998.16;5632679;26;20309;-75
2024/04/12 11:50:15;;;;;;;7.45;3.97;;;;;;;21.88;71.50;101988.41;5638379;26;19994;-74
2024/04/12 11:52:45;;;;;;;7.05;4.10;;;;;;;22.32;69.40;101978.59;5642849;26;20002;-75
2024/04/12 11:55:16;;;;;;;6.10;3.80;;;;;;;22.56;69.98;101981.56;5636543;26;20585;-75
2024/04/12 11:57:46;;;;;;;6.32;4.28;;;;;;;22.52;68.26;101975.56;5638252;26;20002;-74
2024/04/12 12:00:18;;;;;;;7.20;4.00;;;;;;;22.40;70.02;101986.16;5635869;26;20013;-75
2024/04/12 12:02:52;;;;;;;5.15;3.30;;;;;;;22.18;69.19;101980.38;5630909;26;20046;-75
2024/04/12 12:05:22;;;;;;;7.20;3.78;;;;;;;21.85;69.57;101985.06;5627987;26;20096;-71
2024/04/12 12:07:52;;;;;;;5.55;4.25;;;;;;;21.73;70.10;101989.31;5635062;26;20002;-75
2024/04/12 12:10:25;;;;;;;5.57;3.90;;;;;;;22.02;69.64;101975.13;5635658;26;20013;-74
2024/04/12 12:12:56;;;;;;;6.68;4.05;;;;;;;22.22;69.60;101971.25;5634869;26;20002;-75
2024/04/12 12:15:26;;;;;;;5.72;4.10;;;;;;;21.92;69.86;101967.78;5637179;26;20404;-73
2024/04/12 12:17:57;;;;;;;5.57;3.85;;;;;;;21.87;70.47;101970.72;5634704;26;20522;-75
2024/04/12 12:20:30;;;;;;;7.03;4.38;;;;;;;21.72;71.15;101968.97;5636218;26;20002;-72
2024/04/12 12:23:00;;;;;;;8.13;4.68;;;;;;;21.84;70.69;101964.72;5635050;26;20013;-75
2024/04/12 12:25:30;;;;;;;7.53;4.28;;;;;;;22.06;71.36;101955.34;5635801;26;20354;-72
2024/04/12 12:28:01;;;;;;;5.40;3.90;;;;;;;22.28;71.44;101954.88;5638609;26;20320;-75
2024/04/12 12:30:33;;;;;;;5.25;4.25;;;;;;;22.31;70.78;101946.69;5629058;26;19991;-75
2024/04/12 12:33:07;;;;;;;5.78;4.78;;;;;;;22.02;71.41;101950.28;5633132;26;19994;-75
2024/04/12 12:35:37;;;;;;;5.65;4.18;;;;;;;21.71;72.27;101953.09;5640938;26;20079;-74
2024/04/12 12:38:11;;;;;;;4.72;4.20;;;;;;;21.94;70.94;101952.56;5636025;26;20537;-74
2024/04/12 12:40:41;;;;;;;6.40;4.32;;;;;;;21.88;70.73;101950.28;5629504;26;20383;-73
2024/04/12 12:43:12;;;;;;;7.63;4.60;;;;;;;21.67;72.70;101943.56;5637576;26;19994;-73
2024/04/12 12:45:42;;;;;;;6.93;4.60;;;;;;;21.77;71.91;101936.75;5634493;26;20006;-72
2024/04/12 12:48:20;;;;;;;6.28;4.30;;;;;;;21.50;72.41;101943.66;5636416;26;19995;-74
2024/04/12 12:50:52;;;;;;;7.63;4.78;;;;;;;21.28;73.56;101940.56;5634521;26;20044;-75
2024/04/12 12:53:26;;;;;;;7.32;4.45;;;;;;;21.52;73.78;101945.31;5636771;26;20446;-74
2024/04/12 12:55:57;;;;;;;8.93;5.47;;;;;;;21.20;73.79;101940.16;5639555;26;20024;-75
2024/04/12 12:58:27;;;;;;;7.18;4.78;;;;;;;21.07;75.08;101944.47;5639079;26;20002;-74
2024/04/12 13:01:00;;;;;;;7.05;4.95;;;;;;;21.44;73.90;101939.56;5633340;26;19990;-72